CheckWX is a tool to help pilots better visualize weather data.  It is not intended as a substitute for an official pre-flight weather briefing.

23:10:04 UTC

2A0 METAR
Mark Anton Airport
Dayton, Tennessee, USA
Current

35 mins ago

K2A0 242235Z AUTO 13003KT 10SM SCT095 31/22 A3011 RMK A01
Observed
May-24 @ 22:35 UTC
Wind
  • 130° at 3 KTS
Visibility
10 SM
Flight Rules
VFR
Cloud Levels
  • Scattered at 9,500' AGL
Temperature
31°C / 88°F
Dewpoint
22°C / 72°F
Heat Index
35°C / 95°F
Humidity
59%
Altimeter
30.11" Hg
Pressure
1019.62 hPa
Previous

55 mins ago

K2A0 242215Z AUTO 00000KT 10SM FEW080 BKN090 31/21 A3011 RMK A01
Observed
May-24 @ 22:15 UTC
Visibility
10 SM
Flight Rules
VFR
Cloud Levels
  • Few at 8,000' AGL
  • Broken at 9,000' AGL
Temperature
31°C / 88°F
Dewpoint
21°C / 70°F
Heat Index
34°C / 93°F
Humidity
55%
Altimeter
30.11" Hg
Pressure
1019.62 hPa
Previous

1 hour ago

K2A0 242155Z AUTO 18003KT 10SM FEW080 SCT100 31/20 A3012 RMK A01
Observed
May-24 @ 21:55 UTC
Wind
  • 180° at 3 KTS
Visibility
10 SM
Flight Rules
VFR
Cloud Levels
  • Few at 8,000' AGL
  • Scattered at 10,000' AGL
Temperature
31°C / 88°F
Dewpoint
20°C / 68°F
Heat Index
33°C / 92°F
Humidity
52%
Altimeter
30.12" Hg
Pressure
1020.02 hPa